Bowmanville, Canada
Current Conditions -  °F | °C
As of 12:00 AM on Friday 28 Nov 2014 (Local Time) from CYOO Reporting Station
Broken Clouds Broken Clouds  
Wind Chill: 18°   Ceiling: 11000
Heat Index: 27°   Visibility: 9mi
Dew Point: 21°   Wind: 8mph
Humidity: 80%   Direction: 280°W
Pressure: 30.13"   Gusts: NA
Location:  43.91°N, 78.69°W
Report Text: CYOO 280500Z AUTO 28007KT 9SM FEW040 BKN110 M03/M06 A3013 RMK SLP208
Loading
Personal Weather Stations






























Interactive Weather Map New forecast layout! Learn more

10-Day Weather Forecast

Advertisements
Track Severe Weather on mobile